Terminal Aerodrome Forecast
Issued by NWS Albany, NY

Home | Current Version | Previous Version | Text Only | Print | Product List | Glossary On
Versions: 1 2 3 4 5 6 7 8 9 10 11 12 13 14 15 16 17 18 19 20 21
000
FTUS41 KALY 061129
TAFPOU
TAF
KPOU 061129Z 0612/0712 VRB03KT P6SM FEW050 SCT200
     FM061600 19007KT P6SM SCT040 BKN080 BKN200
     FM070000 VRB03KT P6SM SCT020 BKN080 BKN150
     FM070500 VRB02KT 5SM BR BKN020 BKN040 OVC080=

USA.gov is the U.S. government's official web portal to all federal, state and local government web resources and services.